sensor_id;sensor_type;location;lat;lon;timestamp;P1;durP1;ratioP1;P2;durP2;ratioP2
13163;SDS011;6647;53.688;10.746;2023-04-25T00:01:12;7.72;;;6.10;;
13163;SDS011;6647;53.688;10.746;2023-04-25T00:02:33;9.88;;;6.43;;
13163;SDS011;6647;53.688;10.746;2023-04-25T00:03:55;13.32;;;7.15;;
13163;SDS011;6647;53.688;10.746;2023-04-25T00:05:16;8.13;;;6.10;;
13163;SDS011;6647;53.688;10.746;2023-04-25T00:06:37;6.18;;;5.20;;
13163;SDS011;6647;53.688;10.746;2023-04-25T00:07:58;10.90;;;6.45;;
13163;SDS011;6647;53.688;10.746;2023-04-25T00:09:20;7.80;;;5.78;;
13163;SDS011;6647;53.688;10.746;2023-04-25T00:10:40;7.28;;;5.75;;
13163;SDS011;6647;53.688;10.746;2023-04-25T00:12:01;7.32;;;5.60;;
13163;SDS011;6647;53.688;10.746;2023-04-25T00:13:22;7.30;;;5.70;;
13163;SDS011;6647;53.688;10.746;2023-04-25T00:14:45;11.70;;;5.95;;
13163;SDS011;6647;53.688;10.746;2023-04-25T00:16:07;8.07;;;5.90;;
13163;SDS011;6647;53.688;10.746;2023-04-25T00:17:28;9.48;;;5.68;;
13163;SDS011;6647;53.688;10.746;2023-04-25T00:18:49;7.32;;;5.88;;
13163;SDS011;6647;53.688;10.746;2023-04-25T00:20:14;8.20;;;5.55;;
13163;SDS011;6647;53.688;10.746;2023-04-25T00:21:35;12.65;;;5.80;;
13163;SDS011;6647;53.688;10.746;2023-04-25T00:22:57;6.97;;;4.50;;
13163;SDS011;6647;53.688;10.746;2023-04-25T00:24:19;11.05;;;5.55;;
13163;SDS011;6647;53.688;10.746;2023-04-25T00:25:40;9.95;;;5.30;;
13163;SDS011;6647;53.688;10.746;2023-04-25T00:27:01;4.72;;;4.28;;
13163;SDS011;6647;53.688;10.746;2023-04-25T00:28:21;5.68;;;4.35;;
13163;SDS011;6647;53.688;10.746;2023-04-25T00:29:42;9.27;;;4.90;;
13163;SDS011;6647;53.688;10.746;2023-04-25T00:31:03;5.80;;;4.13;;
13163;SDS011;6647;53.688;10.746;2023-04-25T00:32:24;12.77;;;4.00;;
13163;SDS011;6647;53.688;10.746;2023-04-25T00:33:45;8.77;;;4.47;;
13163;SDS011;6647;53.688;10.746;2023-04-25T00:35:06;6.65;;;3.90;;
13163;SDS011;6647;53.688;10.746;2023-04-25T00:36:27;14.45;;;4.88;;
13163;SDS011;6647;53.688;10.746;2023-04-25T00:37:48;7.78;;;4.57;;
13163;SDS011;6647;53.688;10.746;2023-04-25T00:39:09;10.88;;;3.72;;
13163;SDS011;6647;53.688;10.746;2023-04-25T00:40:30;9.52;;;3.70;;
13163;SDS011;6647;53.688;10.746;2023-04-25T00:41:51;10.27;;;4.43;;
13163;SDS011;6647;53.688;10.746;2023-04-25T00:43:14;9.38;;;4.95;;
13163;SDS011;6647;53.688;10.746;2023-04-25T00:44:35;12.88;;;4.25;;
13163;SDS011;6647;53.688;10.746;2023-04-25T00:45:57;8.75;;;3.83;;
13163;SDS011;6647;53.688;10.746;2023-04-25T00:47:20;10.75;;;4.57;;
13163;SDS011;6647;53.688;10.746;2023-04-25T00:48:42;8.57;;;3.75;;
13163;SDS011;6647;53.688;10.746;2023-04-25T00:50:03;8.43;;;4.25;;
13163;SDS011;6647;53.688;10.746;2023-04-25T00:51:25;7.88;;;4.05;;
13163;SDS011;6647;53.688;10.746;2023-04-25T00:52:46;13.75;;;4.93;;
13163;SDS011;6647;53.688;10.746;2023-04-25T00:54:07;14.13;;;4.38;;
13163;SDS011;6647;53.688;10.746;2023-04-25T00:55:29;9.02;;;4.53;;
13163;SDS011;6647;53.688;10.746;2023-04-25T00:56:52;11.25;;;4.57;;
13163;SDS011;6647;53.688;10.746;2023-04-25T00:58:13;14.80;;;5.07;;
13163;SDS011;6647;53.688;10.746;2023-04-25T00:59:34;10.52;;;5.43;;
13163;SDS011;6647;53.688;10.746;2023-04-25T01:00:57;13.43;;;5.18;;
13163;SDS011;6647;53.688;10.746;2023-04-25T01:02:19;11.23;;;4.85;;
13163;SDS011;6647;53.688;10.746;2023-04-25T01:03:40;8.90;;;4.90;;
13163;SDS011;6647;53.688;10.746;2023-04-25T01:05:01;10.75;;;4.93;;
13163;SDS011;6647;53.688;10.746;2023-04-25T01:06:23;13.88;;;4.07;;
13163;SDS011;6647;53.688;10.746;2023-04-25T01:07:44;17.50;;;5.97;;
13163;SDS011;6647;53.688;10.746;2023-04-25T01:09:05;8.85;;;3.88;;
13163;SDS011;6647;53.688;10.746;2023-04-25T01:10:27;20.70;;;5.82;;
13163;SDS011;6647;53.688;10.746;2023-04-25T01:11:49;7.63;;;4.50;;
13163;SDS011;6647;53.688;10.746;2023-04-25T01:13:10;11.35;;;4.47;;
13163;SDS011;6647;53.688;10.746;2023-04-25T01:14:31;14.68;;;4.50;;
13163;SDS011;6647;53.688;10.746;2023-04-25T01:15:52;13.55;;;4.88;;
13163;SDS011;6647;53.688;10.746;2023-04-25T01:17:13;17.60;;;5.38;;
13163;SDS011;6647;53.688;10.746;2023-04-25T01:18:35;7.25;;;3.70;;
13163;SDS011;6647;53.688;10.746;2023-04-25T01:19:58;13.60;;;4.03;;
13163;SDS011;6647;53.688;10.746;2023-04-25T01:21:20;14.88;;;4.88;;
13163;SDS011;6647;53.688;10.746;2023-04-25T01:22:41;12.75;;;4.40;;
13163;SDS011;6647;53.688;10.746;2023-04-25T01:24:03;18.08;;;4.60;;
13163;SDS011;6647;53.688;10.746;2023-04-25T01:25:24;17.92;;;5.28;;
13163;SDS011;6647;53.688;10.746;2023-04-25T01:26:45;11.77;;;4.82;;
13163;SDS011;6647;53.688;10.746;2023-04-25T01:28:09;13.50;;;4.88;;
13163;SDS011;6647;53.688;10.746;2023-04-25T01:29:31;14.02;;;3.95;;
13163;SDS011;6647;53.688;10.746;2023-04-25T01:30:53;12.68;;;4.25;;
13163;SDS011;6647;53.688;10.746;2023-04-25T01:32:14;12.85;;;5.10;;
13163;SDS011;6647;53.688;10.746;2023-04-25T01:33:35;12.70;;;4.88;;
13163;SDS011;6647;53.688;10.746;2023-04-25T01:34:56;22.58;;;4.72;;
13163;SDS011;6647;53.688;10.746;2023-04-25T01:36:17;11.55;;;4.50;;
13163;SDS011;6647;53.688;10.746;2023-04-25T01:37:41;13.25;;;4.00;;
13163;SDS011;6647;53.688;10.746;2023-04-25T01:39:03;22.65;;;3.72;;
13163;SDS011;6647;53.688;10.746;2023-04-25T01:40:24;27.13;;;3.60;;
13163;SDS011;6647;53.688;10.746;2023-04-25T01:41:45;17.35;;;4.30;;
13163;SDS011;6647;53.688;10.746;2023-04-25T01:43:07;14.95;;;3.70;;
13163;SDS011;6647;53.688;10.746;2023-04-25T01:44:31;23.58;;;4.53;;
13163;SDS011;6647;53.688;10.746;2023-04-25T01:45:52;15.80;;;4.60;;
13163;SDS011;6647;53.688;10.746;2023-04-25T01:47:13;18.20;;;4.38;;
13163;SDS011;6647;53.688;10.746;2023-04-25T01:48:34;14.85;;;3.63;;
13163;SDS011;6647;53.688;10.746;2023-04-25T01:49:55;14.68;;;5.03;;
13163;SDS011;6647;53.688;10.746;2023-04-25T01:51:16;22.75;;;4.10;;
13163;SDS011;6647;53.688;10.746;2023-04-25T01:52:37;18.10;;;4.40;;
13163;SDS011;6647;53.688;10.746;2023-04-25T01:53:58;17.00;;;4.60;;
13163;SDS011;6647;53.688;10.746;2023-04-25T01:55:19;14.05;;;3.35;;
13163;SDS011;6647;53.688;10.746;2023-04-25T01:56:40;14.02;;;3.65;;
13163;SDS011;6647;53.688;10.746;2023-04-25T01:58:02;15.48;;;4.13;;
13163;SDS011;6647;53.688;10.746;2023-04-25T01:59:24;23.17;;;4.20;;
13163;SDS011;6647;53.688;10.746;2023-04-25T02:00:46;21.75;;;5.10;;
13163;SDS011;6647;53.688;10.746;2023-04-25T02:02:07;17.15;;;3.72;;
13163;SDS011;6647;53.688;10.746;2023-04-25T02:03:28;16.75;;;4.78;;
13163;SDS011;6647;53.688;10.746;2023-04-25T02:04:51;17.05;;;4.90;;
13163;SDS011;6647;53.688;10.746;2023-04-25T02:06:12;17.77;;;4.47;;
13163;SDS011;6647;53.688;10.746;2023-04-25T02:07:33;10.45;;;3.83;;
13163;SDS011;6647;53.688;10.746;2023-04-25T02:08:54;20.70;;;4.88;;
13163;SDS011;6647;53.688;10.746;2023-04-25T02:10:15;20.23;;;4.20;;
13163;SDS011;6647;53.688;10.746;2023-04-25T02:11:35;28.25;;;4.60;;
13163;SDS011;6647;53.688;10.746;2023-04-25T02:12:57;22.17;;;4.57;;
13163;SDS011;6647;53.688;10.746;2023-04-25T02:14:18;23.80;;;4.45;;
13163;SDS011;6647;53.688;10.746;2023-04-25T02:15:38;22.65;;;4.50;;
13163;SDS011;6647;53.688;10.746;2023-04-25T02:16:59;19.33;;;6.10;;
13163;SDS011;6647;53.688;10.746;2023-04-25T02:18:20;24.20;;;4.60;;
13163;SDS011;6647;53.688;10.746;2023-04-25T02:19:41;28.35;;;4.57;;
13163;SDS011;6647;53.688;10.746;2023-04-25T02:21:02;22.50;;;4.35;;
13163;SDS011;6647;53.688;10.746;2023-04-25T02:22:23;25.20;;;5.22;;
13163;SDS011;6647;53.688;10.746;2023-04-25T02:23:44;17.85;;;3.88;;
13163;SDS011;6647;53.688;10.746;2023-04-25T02:25:09;26.40;;;4.13;;
13163;SDS011;6647;53.688;10.746;2023-04-25T02:26:30;18.00;;;4.40;;
13163;SDS011;6647;53.688;10.746;2023-04-25T02:27:51;21.42;;;4.57;;
13163;SDS011;6647;53.688;10.746;2023-04-25T02:29:12;20.73;;;3.47;;
13163;SDS011;6647;53.688;10.746;2023-04-25T02:30:33;21.77;;;3.95;;
13163;SDS011;6647;53.688;10.746;2023-04-25T02:31:55;20.35;;;5.15;;
13163;SDS011;6647;53.688;10.746;2023-04-25T02:33:16;19.55;;;4.30;;
13163;SDS011;6647;53.688;10.746;2023-04-25T02:34:37;22.60;;;4.18;;
13163;SDS011;6647;53.688;10.746;2023-04-25T02:35:58;20.65;;;4.13;;
13163;SDS011;6647;53.688;10.746;2023-04-25T02:37:19;26.90;;;4.43;;
13163;SDS011;6647;53.688;10.746;2023-04-25T02:38:39;29.38;;;5.78;;
13163;SDS011;6647;53.688;10.746;2023-04-25T02:40:00;24.42;;;5.20;;
13163;SDS011;6647;53.688;10.746;2023-04-25T02:41:23;15.10;;;4.45;;
13163;SDS011;6647;53.688;10.746;2023-04-25T02:42:44;15.07;;;3.65;;
13163;SDS011;6647;53.688;10.746;2023-04-25T02:44:06;12.70;;;3.80;;
13163;SDS011;6647;53.688;10.746;2023-04-25T02:45:26;15.82;;;4.10;;
13163;SDS011;6647;53.688;10.746;2023-04-25T02:46:47;20.25;;;6.07;;
13163;SDS011;6647;53.688;10.746;2023-04-25T02:48:08;22.85;;;4.05;;
13163;SDS011;6647;53.688;10.746;2023-04-25T02:49:29;16.20;;;3.70;;
13163;SDS011;6647;53.688;10.746;2023-04-25T02:50:50;16.88;;;4.00;;
13163;SDS011;6647;53.688;10.746;2023-04-25T02:52:11;23.23;;;5.25;;
13163;SDS011;6647;53.688;10.746;2023-04-25T02:53:32;19.05;;;3.80;;
13163;SDS011;6647;53.688;10.746;2023-04-25T02:54:53;16.45;;;4.15;;
13163;SDS011;6647;53.688;10.746;2023-04-25T02:56:14;23.73;;;3.85;;
13163;SDS011;6647;53.688;10.746;2023-04-25T02:57:34;23.85;;;5.03;;
13163;SDS011;6647;53.688;10.746;2023-04-25T02:58:55;16.80;;;4.05;;
13163;SDS011;6647;53.688;10.746;2023-04-25T03:00:16;23.23;;;4.35;;
13163;SDS011;6647;53.688;10.746;2023-04-25T03:01:37;28.23;;;4.40;;
13163;SDS011;6647;53.688;10.746;2023-04-25T03:02:58;13.07;;;4.30;;
13163;SDS011;6647;53.688;10.746;2023-04-25T03:04:19;20.55;;;5.78;;
13163;SDS011;6647;53.688;10.746;2023-04-25T03:05:41;14.50;;;4.50;;
13163;SDS011;6647;53.688;10.746;2023-04-25T03:07:01;19.63;;;4.43;;
13163;SDS011;6647;53.688;10.746;2023-04-25T03:08:22;30.33;;;4.43;;
13163;SDS011;6647;53.688;10.746;2023-04-25T03:09:43;29.70;;;5.15;;
13163;SDS011;6647;53.688;10.746;2023-04-25T03:11:04;18.98;;;5.18;;
13163;SDS011;6647;53.688;10.746;2023-04-25T03:12:25;20.90;;;4.47;;
13163;SDS011;6647;53.688;10.746;2023-04-25T03:13:46;30.05;;;4.97;;
13163;SDS011;6647;53.688;10.746;2023-04-25T03:15:07;22.23;;;4.80;;
13163;SDS011;6647;53.688;10.746;2023-04-25T03:16:28;17.48;;;4.55;;
13163;SDS011;6647;53.688;10.746;2023-04-25T03:17:49;21.08;;;4.35;;
13163;SDS011;6647;53.688;10.746;2023-04-25T03:19:10;29.35;;;5.50;;
13163;SDS011;6647;53.688;10.746;2023-04-25T03:20:31;20.15;;;4.13;;
13163;SDS011;6647;53.688;10.746;2023-04-25T03:21:52;26.45;;;4.00;;
13163;SDS011;6647;53.688;10.746;2023-04-25T03:23:13;19.45;;;4.80;;
13163;SDS011;6647;53.688;10.746;2023-04-25T03:24:34;20.70;;;4.40;;
13163;SDS011;6647;53.688;10.746;2023-04-25T03:25:57;13.70;;;3.33;;
13163;SDS011;6647;53.688;10.746;2023-04-25T03:27:17;17.25;;;5.00;;
13163;SDS011;6647;53.688;10.746;2023-04-25T03:28:38;18.13;;;4.05;;
13163;SDS011;6647;53.688;10.746;2023-04-25T03:30:00;22.70;;;4.97;;
13163;SDS011;6647;53.688;10.746;2023-04-25T03:31:21;22.48;;;4.05;;
13163;SDS011;6647;53.688;10.746;2023-04-25T03:32:42;23.58;;;4.40;;
13163;SDS011;6647;53.688;10.746;2023-04-25T03:34:03;22.00;;;4.43;;
13163;SDS011;6647;53.688;10.746;2023-04-25T03:35:24;19.02;;;4.30;;
13163;SDS011;6647;53.688;10.746;2023-04-25T03:36:45;22.38;;;3.40;;
13163;SDS011;6647;53.688;10.746;2023-04-25T03:38:06;18.75;;;4.55;;
13163;SDS011;6647;53.688;10.746;2023-04-25T03:39:27;13.25;;;4.25;;
13163;SDS011;6647;53.688;10.746;2023-04-25T03:40:47;22.80;;;5.25;;
13163;SDS011;6647;53.688;10.746;2023-04-25T03:42:08;17.67;;;4.20;;
13163;SDS011;6647;53.688;10.746;2023-04-25T03:43:29;22.45;;;3.85;;
13163;SDS011;6647;53.688;10.746;2023-04-25T03:44:51;12.13;;;3.50;;
13163;SDS011;6647;53.688;10.746;2023-04-25T03:46:12;25.20;;;4.40;;
13163;SDS011;6647;53.688;10.746;2023-04-25T03:47:33;21.85;;;4.97;;
13163;SDS011;6647;53.688;10.746;2023-04-25T03:48:54;16.88;;;4.25;;
13163;SDS011;6647;53.688;10.746;2023-04-25T03:50:15;13.80;;;4.40;;
13163;SDS011;6647;53.688;10.746;2023-04-25T03:51:35;26.65;;;4.68;;
13163;SDS011;6647;53.688;10.746;2023-04-25T03:52:56;22.77;;;4.65;;
13163;SDS011;6647;53.688;10.746;2023-04-25T03:54:17;14.20;;;3.95;;
13163;SDS011;6647;53.688;10.746;2023-04-25T03:55:38;20.90;;;3.92;;
13163;SDS011;6647;53.688;10.746;2023-04-25T03:56:59;29.27;;;5.28;;
13163;SDS011;6647;53.688;10.746;2023-04-25T03:58:20;20.77;;;3.90;;
13163;SDS011;6647;53.688;10.746;2023-04-25T03:59:41;20.30;;;4.28;;
13163;SDS011;6647;53.688;10.746;2023-04-25T04:01:02;14.77;;;4.38;;
13163;SDS011;6647;53.688;10.746;2023-04-25T04:02:27;16.17;;;4.07;;
13163;SDS011;6647;53.688;10.746;2023-04-25T04:03:48;20.95;;;3.72;;
13163;SDS011;6647;53.688;10.746;2023-04-25T04:05:09;23.05;;;3.97;;
13163;SDS011;6647;53.688;10.746;2023-04-25T04:06:30;22.88;;;4.90;;
13163;SDS011;6647;53.688;10.746;2023-04-25T04:07:50;13.05;;;3.42;;
13163;SDS011;6647;53.688;10.746;2023-04-25T04:09:11;18.10;;;4.68;;
13163;SDS011;6647;53.688;10.746;2023-04-25T04:10:32;19.52;;;4.07;;
13163;SDS011;6647;53.688;10.746;2023-04-25T04:11:53;18.20;;;4.50;;
13163;SDS011;6647;53.688;10.746;2023-04-25T04:13:14;17.92;;;4.82;;
13163;SDS011;6647;53.688;10.746;2023-04-25T04:14:35;14.80;;;3.40;;
13163;SDS011;6647;53.688;10.746;2023-04-25T04:15:56;20.80;;;4.20;;
13163;SDS011;6647;53.688;10.746;2023-04-25T04:17:17;17.92;;;4.10;;
13163;SDS011;6647;53.688;10.746;2023-04-25T04:18:38;19.45;;;4.35;;
13163;SDS011;6647;53.688;10.746;2023-04-25T04:19:59;21.63;;;3.92;;
13163;SDS011;6647;53.688;10.746;2023-04-25T04:21:20;21.27;;;4.45;;
13163;SDS011;6647;53.688;10.746;2023-04-25T04:22:41;11.40;;;3.42;;
13163;SDS011;6647;53.688;10.746;2023-04-25T04:24:02;21.98;;;4.85;;
13163;SDS011;6647;53.688;10.746;2023-04-25T04:25:23;18.60;;;4.97;;
13163;SDS011;6647;53.688;10.746;2023-04-25T04:26:44;13.55;;;3.63;;
13163;SDS011;6647;53.688;10.746;2023-04-25T04:28:06;16.85;;;4.70;;
13163;SDS011;6647;53.688;10.746;2023-04-25T04:29:27;11.95;;;3.75;;
13163;SDS011;6647;53.688;10.746;2023-04-25T04:30:48;20.00;;;5.30;;
13163;SDS011;6647;53.688;10.746;2023-04-25T04:32:12;19.52;;;4.65;;
13163;SDS011;6647;53.688;10.746;2023-04-25T04:33:34;14.60;;;4.13;;
13163;SDS011;6647;53.688;10.746;2023-04-25T04:34:55;23.67;;;3.80;;
13163;SDS011;6647;53.688;10.746;2023-04-25T04:36:16;23.42;;;4.15;;
13163;SDS011;6647;53.688;10.746;2023-04-25T04:37:42;15.90;;;4.15;;
13163;SDS011;6647;53.688;10.746;2023-04-25T04:39:05;18.35;;;3.90;;
13163;SDS011;6647;53.688;10.746;2023-04-25T04:40:26;13.73;;;3.33;;
13163;SDS011;6647;53.688;10.746;2023-04-25T04:41:47;18.05;;;3.75;;
13163;SDS011;6647;53.688;10.746;2023-04-25T04:43:08;12.15;;;3.10;;
13163;SDS011;6647;53.688;10.746;2023-04-25T04:44:30;23.65;;;4.38;;
13163;SDS011;6647;53.688;10.746;2023-04-25T04:45:55;22.65;;;4.70;;
13163;SDS011;6647;53.688;10.746;2023-04-25T04:47:17;17.73;;;4.20;;
13163;SDS011;6647;53.688;10.746;2023-04-25T04:48:38;24.08;;;4.72;;
13163;SDS011;6647;53.688;10.746;2023-04-25T04:50:00;13.10;;;3.97;;
13163;SDS011;6647;53.688;10.746;2023-04-25T04:51:21;18.63;;;4.25;;
13163;SDS011;6647;53.688;10.746;2023-04-25T04:52:42;20.63;;;4.20;;
13163;SDS011;6647;53.688;10.746;2023-04-25T04:54:03;7.97;;;3.47;;
13163;SDS011;6647;53.688;10.746;2023-04-25T04:55:24;21.65;;;3.78;;
13163;SDS011;6647;53.688;10.746;2023-04-25T04:56:45;15.10;;;3.58;;
13163;SDS011;6647;53.688;10.746;2023-04-25T04:58:06;19.17;;;3.75;;
13163;SDS011;6647;53.688;10.746;2023-04-25T04:59:28;13.65;;;3.63;;
13163;SDS011;6647;53.688;10.746;2023-04-25T05:00:49;20.55;;;4.05;;
13163;SDS011;6647;53.688;10.746;2023-04-25T05:02:10;16.00;;;3.58;;
13163;SDS011;6647;53.688;10.746;2023-04-25T05:03:31;15.88;;;4.20;;
13163;SDS011;6647;53.688;10.746;2023-04-25T05:04:52;19.98;;;4.47;;
13163;SDS011;6647;53.688;10.746;2023-04-25T05:06:13;15.25;;;3.30;;
13163;SDS011;6647;53.688;10.746;2023-04-25T05:07:34;14.48;;;3.05;;
13163;SDS011;6647;53.688;10.746;2023-04-25T05:08:55;19.23;;;3.83;;
13163;SDS011;6647;53.688;10.746;2023-04-25T05:10:16;16.20;;;4.10;;
13163;SDS011;6647;53.688;10.746;2023-04-25T05:11:38;13.88;;;3.60;;
13163;SDS011;6647;53.688;10.746;2023-04-25T05:12:59;20.13;;;4.63;;
13163;SDS011;6647;53.688;10.746;2023-04-25T05:14:20;22.77;;;3.80;;
13163;SDS011;6647;53.688;10.746;2023-04-25T05:15:43;22.00;;;4.30;;
13163;SDS011;6647;53.688;10.746;2023-04-25T05:17:04;17.95;;;4.00;;
13163;SDS011;6647;53.688;10.746;2023-04-25T05:18:28;19.30;;;4.32;;
13163;SDS011;6647;53.688;10.746;2023-04-25T05:19:50;33.55;;;5.25;;
13163;SDS011;6647;53.688;10.746;2023-04-25T05:21:11;20.80;;;4.55;;
13163;SDS011;6647;53.688;10.746;2023-04-25T05:22:32;10.43;;;3.58;;
13163;SDS011;6647;53.688;10.746;2023-04-25T05:23:53;18.23;;;3.42;;
13163;SDS011;6647;53.688;10.746;2023-04-25T05:25:14;19.27;;;3.58;;
13163;SDS011;6647;53.688;10.746;2023-04-25T05:26:35;20.02;;;4.22;;
13163;SDS011;6647;53.688;10.746;2023-04-25T05:27:57;17.67;;;4.28;;
13163;SDS011;6647;53.688;10.746;2023-04-25T05:29:19;20.50;;;3.40;;
13163;SDS011;6647;53.688;10.746;2023-04-25T05:30:41;11.07;;;3.10;;
13163;SDS011;6647;53.688;10.746;2023-04-25T05:32:02;18.27;;;3.90;;
13163;SDS011;6647;53.688;10.746;2023-04-25T05:33:23;22.17;;;3.65;;
13163;SDS011;6647;53.688;10.746;2023-04-25T05:34:44;22.70;;;3.70;;
13163;SDS011;6647;53.688;10.746;2023-04-25T05:36:05;18.50;;;3.10;;
13163;SDS011;6647;53.688;10.746;2023-04-25T05:37:26;12.90;;;3.47;;
13163;SDS011;6647;53.688;10.746;2023-04-25T05:38:47;19.48;;;3.45;;
13163;SDS011;6647;53.688;10.746;2023-04-25T05:40:08;16.10;;;4.10;;
13163;SDS011;6647;53.688;10.746;2023-04-25T05:41:29;19.25;;;3.35;;
13163;SDS011;6647;53.688;10.746;2023-04-25T05:42:50;21.85;;;3.70;;
13163;SDS011;6647;53.688;10.746;2023-04-25T05:44:11;11.30;;;2.80;;
13163;SDS011;6647;53.688;10.746;2023-04-25T05:45:32;13.38;;;2.80;;
13163;SDS011;6647;53.688;10.746;2023-04-25T05:46:53;15.93;;;3.47;;
13163;SDS011;6647;53.688;10.746;2023-04-25T05:48:14;13.88;;;3.45;;
13163;SDS011;6647;53.688;10.746;2023-04-25T05:49:35;14.50;;;3.78;;
13163;SDS011;6647;53.688;10.746;2023-04-25T05:50:56;12.15;;;3.10;;
13163;SDS011;6647;53.688;10.746;2023-04-25T05:52:17;15.98;;;3.50;;
13163;SDS011;6647;53.688;10.746;2023-04-25T05:53:37;21.27;;;4.13;;
13163;SDS011;6647;53.688;10.746;2023-04-25T05:54:58;16.73;;;3.55;;
13163;SDS011;6647;53.688;10.746;2023-04-25T05:56:19;11.55;;;3.17;;
13163;SDS011;6647;53.688;10.746;2023-04-25T05:57:40;10.48;;;3.45;;
13163;SDS011;6647;53.688;10.746;2023-04-25T05:59:02;14.10;;;3.55;;
13163;SDS011;6647;53.688;10.746;2023-04-25T06:00:23;10.52;;;3.63;;
13163;SDS011;6647;53.688;10.746;2023-04-25T06:01:44;12.13;;;3.20;;
13163;SDS011;6647;53.688;10.746;2023-04-25T06:03:06;20.92;;;4.40;;
13163;SDS011;6647;53.688;10.746;2023-04-25T06:04:29;17.80;;;3.20;;
13163;SDS011;6647;53.688;10.746;2023-04-25T06:05:50;17.63;;;3.20;;
13163;SDS011;6647;53.688;10.746;2023-04-25T06:07:11;11.10;;;3.17;;
13163;SDS011;6647;53.688;10.746;2023-04-25T06:08:33;13.15;;;3.30;;
13163;SDS011;6647;53.688;10.746;2023-04-25T06:09:54;16.67;;;3.55;;
13163;SDS011;6647;53.688;10.746;2023-04-25T06:11:15;11.00;;;3.30;;
13163;SDS011;6647;53.688;10.746;2023-04-25T06:12:36;18.58;;;4.55;;
13163;SDS011;6647;53.688;10.746;2023-04-25T06:13:56;15.68;;;3.78;;
13163;SDS011;6647;53.688;10.746;2023-04-25T06:15:17;19.27;;;3.92;;
13163;SDS011;6647;53.688;10.746;2023-04-25T06:16:38;18.35;;;3.67;;
13163;SDS011;6647;53.688;10.746;2023-04-25T06:17:59;16.73;;;4.00;;
13163;SDS011;6647;53.688;10.746;2023-04-25T06:19:20;13.00;;;3.50;;
13163;SDS011;6647;53.688;10.746;2023-04-25T06:20:41;15.90;;;3.15;;
13163;SDS011;6647;53.688;10.746;2023-04-25T06:22:02;7.80;;;2.97;;
13163;SDS011;6647;53.688;10.746;2023-04-25T06:23:23;6.55;;;2.25;;
13163;SDS011;6647;53.688;10.746;2023-04-25T06:24:43;11.75;;;4.00;;
13163;SDS011;6647;53.688;10.746;2023-04-25T06:26:06;13.65;;;4.20;;
13163;SDS011;6647;53.688;10.746;2023-04-25T06:27:26;13.43;;;3.10;;
13163;SDS011;6647;53.688;10.746;2023-04-25T06:28:47;14.35;;;3.40;;
13163;SDS011;6647;53.688;10.746;2023-04-25T06:30:08;8.43;;;3.03;;
13163;SDS011;6647;53.688;10.746;2023-04-25T06:31:30;11.73;;;3.30;;
13163;SDS011;6647;53.688;10.746;2023-04-25T06:32:53;11.90;;;2.80;;
13163;SDS011;6647;53.688;10.746;2023-04-25T06:34:13;11.20;;;3.40;;
13163;SDS011;6647;53.688;10.746;2023-04-25T06:35:35;10.32;;;2.83;;
13163;SDS011;6647;53.688;10.746;2023-04-25T06:36:56;18.15;;;3.75;;
13163;SDS011;6647;53.688;10.746;2023-04-25T06:38:17;12.18;;;3.67;;
13163;SDS011;6647;53.688;10.746;2023-04-25T06:39:38;12.98;;;3.33;;
13163;SDS011;6647;53.688;10.746;2023-04-25T06:40:58;16.02;;;2.58;;
13163;SDS011;6647;53.688;10.746;2023-04-25T06:42:19;15.07;;;4.03;;
13163;SDS011;6647;53.688;10.746;2023-04-25T06:43:40;13.15;;;2.60;;
13163;SDS011;6647;53.688;10.746;2023-04-25T06:45:01;20.17;;;3.80;;
13163;SDS011;6647;53.688;10.746;2023-04-25T06:46:22;15.10;;;3.83;;
13163;SDS011;6647;53.688;10.746;2023-04-25T06:47:43;9.90;;;3.70;;
13163;SDS011;6647;53.688;10.746;2023-04-25T06:49:04;10.88;;;2.63;;
13163;SDS011;6647;53.688;10.746;2023-04-25T06:50:25;11.18;;;3.03;;
13163;SDS011;6647;53.688;10.746;2023-04-25T06:51:46;6.03;;;3.47;;
13163;SDS011;6647;53.688;10.746;2023-04-25T06:53:07;14.23;;;3.13;;
13163;SDS011;6647;53.688;10.746;2023-04-25T06:54:29;14.88;;;3.00;;
13163;SDS011;6647;53.688;10.746;2023-04-25T06:55:50;17.58;;;3.50;;
13163;SDS011;6647;53.688;10.746;2023-04-25T06:57:10;15.40;;;2.95;;
13163;SDS011;6647;53.688;10.746;2023-04-25T06:58:31;15.40;;;3.38;;
13163;SDS011;6647;53.688;10.746;2023-04-25T06:59:52;18.58;;;3.40;;
13163;SDS011;6647;53.688;10.746;2023-04-25T07:01:13;11.55;;;2.88;;
13163;SDS011;6647;53.688;10.746;2023-04-25T07:02:34;10.88;;;2.65;;
13163;SDS011;6647;53.688;10.746;2023-04-25T07:03:55;10.65;;;3.05;;
13163;SDS011;6647;53.688;10.746;2023-04-25T07:05:16;13.43;;;2.60;;
13163;SDS011;6647;53.688;10.746;2023-04-25T07:06:37;13.23;;;3.25;;
13163;SDS011;6647;53.688;10.746;2023-04-25T07:08:02;18.45;;;3.63;;
13163;SDS011;6647;53.688;10.746;2023-04-25T07:09:23;9.13;;;2.70;;
13163;SDS011;6647;53.688;10.746;2023-04-25T07:10:44;12.52;;;3.10;;
13163;SDS011;6647;53.688;10.746;2023-04-25T07:12:06;10.63;;;3.30;;
13163;SDS011;6647;53.688;10.746;2023-04-25T07:13:27;13.90;;;2.92;;
13163;SDS011;6647;53.688;10.746;2023-04-25T07:14:48;12.00;;;3.10;;
13163;SDS011;6647;53.688;10.746;2023-04-25T07:16:08;14.15;;;2.72;;
13163;SDS011;6647;53.688;10.746;2023-04-25T07:17:29;12.63;;;3.28;;
13163;SDS011;6647;53.688;10.746;2023-04-25T07:18:50;10.02;;;3.22;;
13163;SDS011;6647;53.688;10.746;2023-04-25T07:20:11;19.23;;;2.90;;
13163;SDS011;6647;53.688;10.746;2023-04-25T07:21:32;12.35;;;3.58;;
13163;SDS011;6647;53.688;10.746;2023-04-25T07:22:53;12.77;;;2.80;;
13163;SDS011;6647;53.688;10.746;2023-04-25T07:24:14;12.55;;;2.85;;
13163;SDS011;6647;53.688;10.746;2023-04-25T07:25:35;18.70;;;3.70;;
13163;SDS011;6647;53.688;10.746;2023-04-25T07:26:55;12.55;;;3.58;;
13163;SDS011;6647;53.688;10.746;2023-04-25T07:28:16;8.23;;;3.20;;
13163;SDS011;6647;53.688;10.746;2023-04-25T07:29:38;11.35;;;3.22;;
13163;SDS011;6647;53.688;10.746;2023-04-25T07:30:59;14.68;;;3.00;;
13163;SDS011;6647;53.688;10.746;2023-04-25T07:32:19;21.38;;;3.35;;
13163;SDS011;6647;53.688;10.746;2023-04-25T07:33:40;11.63;;;2.85;;
13163;SDS011;6647;53.688;10.746;2023-04-25T07:35:01;12.93;;;3.53;;
13163;SDS011;6647;53.688;10.746;2023-04-25T07:36:23;11.68;;;2.95;;
13163;SDS011;6647;53.688;10.746;2023-04-25T07:37:44;13.68;;;2.88;;
13163;SDS011;6647;53.688;10.746;2023-04-25T07:39:05;21.27;;;3.40;;
13163;SDS011;6647;53.688;10.746;2023-04-25T07:40:26;13.40;;;3.88;;
13163;SDS011;6647;53.688;10.746;2023-04-25T07:41:47;20.05;;;3.13;;
13163;SDS011;6647;53.688;10.746;2023-04-25T07:43:08;5.95;;;3.13;;
13163;SDS011;6647;53.688;10.746;2023-04-25T07:44:29;14.50;;;3.50;;
13163;SDS011;6647;53.688;10.746;2023-04-25T07:45:58;20.10;;;3.47;;
13163;SDS011;6647;53.688;10.746;2023-04-25T07:47:19;15.95;;;3.30;;
13163;SDS011;6647;53.688;10.746;2023-04-25T07:48:40;8.48;;;2.58;;
13163;SDS011;6647;53.688;10.746;2023-04-25T07:50:01;20.75;;;2.83;;
13163;SDS011;6647;53.688;10.746;2023-04-25T07:51:23;21.58;;;3.80;;
13163;SDS011;6647;53.688;10.746;2023-04-25T07:52:44;19.70;;;3.13;;
13163;SDS011;6647;53.688;10.746;2023-04-25T07:54:05;12.60;;;3.03;;
13163;SDS011;6647;53.688;10.746;2023-04-25T07:55:26;12.25;;;2.70;;
13163;SDS011;6647;53.688;10.746;2023-04-25T07:56:47;15.23;;;3.13;;
13163;SDS011;6647;53.688;10.746;2023-04-25T07:58:08;10.75;;;2.78;;
13163;SDS011;6647;53.688;10.746;2023-04-25T07:59:30;18.60;;;3.05;;
13163;SDS011;6647;53.688;10.746;2023-04-25T08:00:51;8.45;;;2.88;;
13163;SDS011;6647;53.688;10.746;2023-04-25T08:02:11;10.88;;;2.60;;
13163;SDS011;6647;53.688;10.746;2023-04-25T08:03:32;8.88;;;2.13;;